sensor_id;sensor_type;location;lat;lon;timestamp;temperature;humidity
24730;DHT22;12832;52.392;13.066;2022-09-01T00:01:29;28.90;40.20
24730;DHT22;12832;52.392;13.066;2022-09-01T00:03:57;28.90;40.10
24730;DHT22;12832;52.392;13.066;2022-09-01T00:06:30;28.90;40.10
24730;DHT22;12832;52.392;13.066;2022-09-01T00:09:00;28.90;40.20
24730;DHT22;12832;52.392;13.066;2022-09-01T00:11:28;28.90;40.20
24730;DHT22;12832;52.392;13.066;2022-09-01T00:13:55;28.90;40.30
24730;DHT22;12832;52.392;13.066;2022-09-01T00:16:22;28.90;40.20
24730;DHT22;12832;52.392;13.066;2022-09-01T00:18:52;28.90;40.20
24730;DHT22;12832;52.392;13.066;2022-09-01T00:21:24;28.90;40.30
24730;DHT22;12832;52.392;13.066;2022-09-01T00:23:50;28.90;40.30
24730;DHT22;12832;52.392;13.066;2022-09-01T00:26:17;28.90;40.30
24730;DHT22;12832;52.392;13.066;2022-09-01T00:28:43;28.80;40.20
24730;DHT22;12832;52.392;13.066;2022-09-01T00:31:10;28.80;40.30
24730;DHT22;12832;52.392;13.066;2022-09-01T00:33:37;28.90;40.30
24730;DHT22;12832;52.392;13.066;2022-09-01T00:36:04;28.90;40.30
24730;DHT22;12832;52.392;13.066;2022-09-01T00:38:31;28.90;40.30
24730;DHT22;12832;52.392;13.066;2022-09-01T00:40:57;28.90;40.30
24730;DHT22;12832;52.392;13.066;2022-09-01T00:46:03;28.90;40.30
24730;DHT22;12832;52.392;13.066;2022-09-01T00:48:30;28.90;40.40
24730;DHT22;12832;52.392;13.066;2022-09-01T00:50:59;28.90;40.40
24730;DHT22;12832;52.392;13.066;2022-09-01T00:53:26;28.90;40.40
24730;DHT22;12832;52.392;13.066;2022-09-01T00:55:52;28.90;40.30
24730;DHT22;12832;52.392;13.066;2022-09-01T00:58:18;28.90;40.30
24730;DHT22;12832;52.392;13.066;2022-09-01T01:00:47;28.90;40.30
24730;DHT22;12832;52.392;13.066;2022-09-01T01:03:14;28.90;40.30
24730;DHT22;12832;52.392;13.066;2022-09-01T01:05:44;28.90;40.30
24730;DHT22;12832;52.392;13.066;2022-09-01T01:08:13;28.90;40.30
24730;DHT22;12832;52.392;13.066;2022-09-01T01:10:43;28.90;40.30
24730;DHT22;12832;52.392;13.066;2022-09-01T01:13:14;28.90;40.30
24730;DHT22;12832;52.392;13.066;2022-09-01T01:15:42;28.90;40.30
24730;DHT22;12832;52.392;13.066;2022-09-01T01:18:13;28.90;40.30
24730;DHT22;12832;52.392;13.066;2022-09-01T01:20:42;28.90;40.40
24730;DHT22;12832;52.392;13.066;2022-09-01T01:23:35;28.90;40.40
24730;DHT22;12832;52.392;13.066;2022-09-01T01:26:06;28.90;41.00
24730;DHT22;12832;52.392;13.066;2022-09-01T01:28:35;28.90;40.40
24730;DHT22;12832;52.392;13.066;2022-09-01T01:31:10;28.90;40.40
24730;DHT22;12832;52.392;13.066;2022-09-01T01:33:41;28.90;40.40
24730;DHT22;12832;52.392;13.066;2022-09-01T01:36:16;28.90;40.30
24730;DHT22;12832;52.392;13.066;2022-09-01T01:38:46;28.90;40.30
24730;DHT22;12832;52.392;13.066;2022-09-01T01:41:15;28.90;40.30
24730;DHT22;12832;52.392;13.066;2022-09-01T01:43:42;28.90;40.30
24730;DHT22;12832;52.392;13.066;2022-09-01T01:46:10;28.90;40.40
24730;DHT22;12832;52.392;13.066;2022-09-01T01:48:39;28.90;40.40
24730;DHT22;12832;52.392;13.066;2022-09-01T01:51:07;28.90;40.40
24730;DHT22;12832;52.392;13.066;2022-09-01T01:53:34;28.90;40.40
24730;DHT22;12832;52.392;13.066;2022-09-01T01:56:02;28.90;40.40
24730;DHT22;12832;52.392;13.066;2022-09-01T01:58:28;28.90;41.00
24730;DHT22;12832;52.392;13.066;2022-09-01T02:00:56;28.90;40.40
24730;DHT22;12832;52.392;13.066;2022-09-01T02:03:27;28.90;40.40
24730;DHT22;12832;52.392;13.066;2022-09-01T02:05:55;28.90;40.40
24730;DHT22;12832;52.392;13.066;2022-09-01T02:08:23;28.90;40.40
24730;DHT22;12832;52.392;13.066;2022-09-01T02:10:52;28.90;40.40
24730;DHT22;12832;52.392;13.066;2022-09-01T02:13:21;28.90;40.40
24730;DHT22;12832;52.392;13.066;2022-09-01T02:16:02;28.90;40.40
24730;DHT22;12832;52.392;13.066;2022-09-01T02:18:32;28.90;40.40
24730;DHT22;12832;52.392;13.066;2022-09-01T02:21:06;28.90;40.40
24730;DHT22;12832;52.392;13.066;2022-09-01T02:23:38;28.90;40.40
24730;DHT22;12832;52.392;13.066;2022-09-01T02:26:08;28.90;40.40
24730;DHT22;12832;52.392;13.066;2022-09-01T02:28:45;28.90;40.40
24730;DHT22;12832;52.392;13.066;2022-09-01T02:31:20;28.90;40.50
24730;DHT22;12832;52.392;13.066;2022-09-01T02:33:47;28.90;40.50
24730;DHT22;12832;52.392;13.066;2022-09-01T02:36:16;28.90;40.50
24730;DHT22;12832;52.392;13.066;2022-09-01T02:38:44;28.90;40.50
24730;DHT22;12832;52.392;13.066;2022-09-01T02:41:13;28.90;40.40
24730;DHT22;12832;52.392;13.066;2022-09-01T02:43:41;28.90;40.40
24730;DHT22;12832;52.392;13.066;2022-09-01T02:46:12;29.00;40.50
24730;DHT22;12832;52.392;13.066;2022-09-01T02:48:41;28.90;40.40
24730;DHT22;12832;52.392;13.066;2022-09-01T02:51:16;28.90;40.40
24730;DHT22;12832;52.392;13.066;2022-09-01T02:53:44;29.00;40.50
24730;DHT22;12832;52.392;13.066;2022-09-01T02:56:11;28.90;40.40
24730;DHT22;12832;52.392;13.066;2022-09-01T02:58:41;28.90;40.40
24730;DHT22;12832;52.392;13.066;2022-09-01T03:01:20;29.00;40.50
24730;DHT22;12832;52.392;13.066;2022-09-01T03:03:52;28.90;40.40
24730;DHT22;12832;52.392;13.066;2022-09-01T03:06:20;29.00;40.50
24730;DHT22;12832;52.392;13.066;2022-09-01T03:08:53;29.00;40.50
24730;DHT22;12832;52.392;13.066;2022-09-01T03:11:21;28.90;40.40
24730;DHT22;12832;52.392;13.066;2022-09-01T03:13:49;28.90;40.50
24730;DHT22;12832;52.392;13.066;2022-09-01T03:16:16;29.00;40.60
24730;DHT22;12832;52.392;13.066;2022-09-01T03:18:42;28.90;40.50
24730;DHT22;12832;52.392;13.066;2022-09-01T03:21:08;28.90;40.40
24730;DHT22;12832;52.392;13.066;2022-09-01T03:23:41;29.00;40.50
24730;DHT22;12832;52.392;13.066;2022-09-01T03:26:08;28.90;40.40
24730;DHT22;12832;52.392;13.066;2022-09-01T03:28:35;29.00;40.50
24730;DHT22;12832;52.392;13.066;2022-09-01T03:31:05;29.00;40.50
24730;DHT22;12832;52.392;13.066;2022-09-01T03:33:32;29.00;40.40
24730;DHT22;12832;52.392;13.066;2022-09-01T03:35:59;29.00;40.40
24730;DHT22;12832;52.392;13.066;2022-09-01T03:38:25;28.90;40.40
24730;DHT22;12832;52.392;13.066;2022-09-01T03:40:54;29.00;40.50
24730;DHT22;12832;52.392;13.066;2022-09-01T03:43:24;28.90;40.40
24730;DHT22;12832;52.392;13.066;2022-09-01T03:46:00;29.00;40.50
24730;DHT22;12832;52.392;13.066;2022-09-01T03:48:28;29.00;40.20
24730;DHT22;12832;52.392;13.066;2022-09-01T03:50:56;29.00;39.60
24730;DHT22;12832;52.392;13.066;2022-09-01T03:53:28;29.00;39.30
24730;DHT22;12832;52.392;13.066;2022-09-01T03:55:55;29.00;39.50
24730;DHT22;12832;52.392;13.066;2022-09-01T03:58:23;29.00;39.40
24730;DHT22;12832;52.392;13.066;2022-09-01T04:00:54;29.00;39.30
24730;DHT22;12832;52.392;13.066;2022-09-01T04:03:24;29.00;39.30
24730;DHT22;12832;52.392;13.066;2022-09-01T04:05:58;29.00;39.30
24730;DHT22;12832;52.392;13.066;2022-09-01T04:08:25;29.00;39.20
24730;DHT22;12832;52.392;13.066;2022-09-01T04:11:11;28.90;39.10
24730;DHT22;12832;52.392;13.066;2022-09-01T04:13:40;29.00;39.00
24730;DHT22;12832;52.392;13.066;2022-09-01T04:16:23;29.00;38.90
24730;DHT22;12832;52.392;13.066;2022-09-01T04:19:09;29.00;38.90
24730;DHT22;12832;52.392;13.066;2022-09-01T04:21:46;29.00;38.90
24730;DHT22;12832;52.392;13.066;2022-09-01T04:24:15;29.00;38.80
24730;DHT22;12832;52.392;13.066;2022-09-01T04:26:43;29.00;38.80
24730;DHT22;12832;52.392;13.066;2022-09-01T04:29:11;28.90;39.40
24730;DHT22;12832;52.392;13.066;2022-09-01T04:31:38;29.00;39.70
24730;DHT22;12832;52.392;13.066;2022-09-01T04:34:05;29.00;39.60
24730;DHT22;12832;52.392;13.066;2022-09-01T04:36:40;29.00;38.80
24730;DHT22;12832;52.392;13.066;2022-09-01T04:39:07;29.10;38.80
24730;DHT22;12832;52.392;13.066;2022-09-01T04:41:42;29.00;38.60
24730;DHT22;12832;52.392;13.066;2022-09-01T04:44:11;29.10;38.60
24730;DHT22;12832;52.392;13.066;2022-09-01T04:46:40;29.00;38.50
24730;DHT22;12832;52.392;13.066;2022-09-01T04:49:12;29.10;38.70
24730;DHT22;12832;52.392;13.066;2022-09-01T04:51:43;29.00;38.50
24730;DHT22;12832;52.392;13.066;2022-09-01T04:54:11;29.10;38.60
24730;DHT22;12832;52.392;13.066;2022-09-01T04:56:43;29.10;38.60
24730;DHT22;12832;52.392;13.066;2022-09-01T04:59:12;29.10;38.60
24730;DHT22;12832;52.392;13.066;2022-09-01T05:01:40;29.10;38.60
24730;DHT22;12832;52.392;13.066;2022-09-01T05:04:12;29.10;38.50
24730;DHT22;12832;52.392;13.066;2022-09-01T05:06:41;29.10;38.60
24730;DHT22;12832;52.392;13.066;2022-09-01T05:09:09;29.00;38.50
24730;DHT22;12832;52.392;13.066;2022-09-01T05:11:38;29.00;38.50
24730;DHT22;12832;52.392;13.066;2022-09-01T05:14:05;29.00;38.40
24730;DHT22;12832;52.392;13.066;2022-09-01T05:16:33;28.90;38.50
24730;DHT22;12832;52.392;13.066;2022-09-01T05:19:01;28.90;38.60
24730;DHT22;12832;52.392;13.066;2022-09-01T05:21:27;28.90;38.60
24730;DHT22;12832;52.392;13.066;2022-09-01T05:23:56;28.90;38.60
24730;DHT22;12832;52.392;13.066;2022-09-01T05:26:28;28.90;38.70
24730;DHT22;12832;52.392;13.066;2022-09-01T05:28:59;28.80;38.80
24730;DHT22;12832;52.392;13.066;2022-09-01T05:31:27;28.80;38.80
24730;DHT22;12832;52.392;13.066;2022-09-01T05:34:00;28.70;38.80
24730;DHT22;12832;52.392;13.066;2022-09-01T05:36:28;28.70;39.10
24730;DHT22;12832;52.392;13.066;2022-09-01T05:38:59;28.70;39.80
24730;DHT22;12832;52.392;13.066;2022-09-01T05:41:26;28.70;39.90
24730;DHT22;12832;52.392;13.066;2022-09-01T05:43:53;28.70;40.10
24730;DHT22;12832;52.392;13.066;2022-09-01T05:46:26;28.60;39.40
24730;DHT22;12832;52.392;13.066;2022-09-01T05:48:53;28.60;39.20
24730;DHT22;12832;52.392;13.066;2022-09-01T05:51:23;28.60;39.50
24730;DHT22;12832;52.392;13.066;2022-09-01T05:54:10;28.60;39.70
24730;DHT22;12832;52.392;13.066;2022-09-01T05:56:38;28.60;39.90
24730;DHT22;12832;52.392;13.066;2022-09-01T05:59:11;28.50;39.50
24730;DHT22;12832;52.392;13.066;2022-09-01T06:01:54;28.50;39.50
24730;DHT22;12832;52.392;13.066;2022-09-01T06:04:21;28.50;39.50
24730;DHT22;12832;52.392;13.066;2022-09-01T06:06:48;28.50;39.70
24730;DHT22;12832;52.392;13.066;2022-09-01T06:09:36;28.50;40.30
24730;DHT22;12832;52.392;13.066;2022-09-01T06:12:03;28.50;40.40
24730;DHT22;12832;52.392;13.066;2022-09-01T06:14:30;28.50;40.50
24730;DHT22;12832;52.392;13.066;2022-09-01T06:16:56;28.50;40.50
24730;DHT22;12832;52.392;13.066;2022-09-01T06:19:23;28.50;40.50
24730;DHT22;12832;52.392;13.066;2022-09-01T06:21:50;28.40;40.40
24730;DHT22;12832;52.392;13.066;2022-09-01T06:24:16;28.40;40.40
24730;DHT22;12832;52.392;13.066;2022-09-01T06:26:42;28.40;40.20
24730;DHT22;12832;52.392;13.066;2022-09-01T06:29:11;28.40;39.50
24730;DHT22;12832;52.392;13.066;2022-09-01T06:31:40;28.40;39.50
24730;DHT22;12832;52.392;13.066;2022-09-01T06:34:09;28.40;40.10
24730;DHT22;12832;52.392;13.066;2022-09-01T06:36:38;28.40;39.90
24730;DHT22;12832;52.392;13.066;2022-09-01T06:39:06;28.40;40.10
24730;DHT22;12832;52.392;13.066;2022-09-01T06:41:33;28.40;40.30
24730;DHT22;12832;52.392;13.066;2022-09-01T06:44:01;28.40;40.40
24730;DHT22;12832;52.392;13.066;2022-09-01T06:46:27;28.40;40.40
24730;DHT22;12832;52.392;13.066;2022-09-01T06:48:55;28.40;40.50
24730;DHT22;12832;52.392;13.066;2022-09-01T06:51:25;28.40;40.00
24730;DHT22;12832;52.392;13.066;2022-09-01T06:53:54;28.40;39.70
24730;DHT22;12832;52.392;13.066;2022-09-01T06:56:26;28.40;39.50
24730;DHT22;12832;52.392;13.066;2022-09-01T06:58:58;28.30;40.10
24730;DHT22;12832;52.392;13.066;2022-09-01T07:01:26;28.30;40.10
24730;DHT22;12832;52.392;13.066;2022-09-01T07:03:54;28.30;40.30
24730;DHT22;12832;52.392;13.066;2022-09-01T07:06:23;28.30;40.20
24730;DHT22;12832;52.392;13.066;2022-09-01T07:09:12;28.30;39.70
24730;DHT22;12832;52.392;13.066;2022-09-01T07:11:59;28.30;39.70
24730;DHT22;12832;52.392;13.066;2022-09-01T07:14:48;28.30;39.80
24730;DHT22;12832;52.392;13.066;2022-09-01T07:17:34;28.30;39.40
24730;DHT22;12832;52.392;13.066;2022-09-01T07:20:00;28.30;39.80
24730;DHT22;12832;52.392;13.066;2022-09-01T07:22:47;28.30;40.20
24730;DHT22;12832;52.392;13.066;2022-09-01T07:25:30;28.30;40.30
24730;DHT22;12832;52.392;13.066;2022-09-01T07:28:17;28.30;40.40
24730;DHT22;12832;52.392;13.066;2022-09-01T07:30:46;28.30;39.80
24730;DHT22;12832;52.392;13.066;2022-09-01T07:33:16;28.30;40.20
24730;DHT22;12832;52.392;13.066;2022-09-01T07:36:05;28.30;40.50
24730;DHT22;12832;52.392;13.066;2022-09-01T07:38:53;28.30;40.60
24730;DHT22;12832;52.392;13.066;2022-09-01T07:41:40;28.30;40.50
24730;DHT22;12832;52.392;13.066;2022-09-01T07:44:27;28.30;40.50
24730;DHT22;12832;52.392;13.066;2022-09-01T07:46:53;28.30;40.50
24730;DHT22;12832;52.392;13.066;2022-09-01T07:49:39;28.30;40.50
24730;DHT22;12832;52.392;13.066;2022-09-01T07:52:25;28.20;40.50
24730;DHT22;12832;52.392;13.066;2022-09-01T07:54:52;28.20;40.50
24730;DHT22;12832;52.392;13.066;2022-09-01T07:57:19;28.30;40.50
24730;DHT22;12832;52.392;13.066;2022-09-01T07:59:47;28.30;39.70
24730;DHT22;12832;52.392;13.066;2022-09-01T08:02:15;28.30;39.70
24730;DHT22;12832;52.392;13.066;2022-09-01T08:04:43;28.30;39.40
24730;DHT22;12832;52.392;13.066;2022-09-01T08:07:09;28.30;39.20
24730;DHT22;12832;52.392;13.066;2022-09-01T08:09:41;28.30;39.90
24730;DHT22;12832;52.392;13.066;2022-09-01T08:12:10;28.20;40.10
24730;DHT22;12832;52.392;13.066;2022-09-01T08:14:36;28.30;40.20
24730;DHT22;12832;52.392;13.066;2022-09-01T08:17:03;28.30;39.50
24730;DHT22;12832;52.392;13.066;2022-09-01T08:19:50;28.20;39.30
24730;DHT22;12832;52.392;13.066;2022-09-01T08:22:18;28.30;39.00
24730;DHT22;12832;52.392;13.066;2022-09-01T08:24:49;28.20;38.70
24730;DHT22;12832;52.392;13.066;2022-09-01T08:27:15;28.20;38.80
24730;DHT22;12832;52.392;13.066;2022-09-01T08:29:41;28.20;39.00
24730;DHT22;12832;52.392;13.066;2022-09-01T08:32:08;28.20;38.70
24730;DHT22;12832;52.392;13.066;2022-09-01T08:34:36;28.20;39.70
24730;DHT22;12832;52.392;13.066;2022-09-01T08:37:04;28.20;39.90
24730;DHT22;12832;52.392;13.066;2022-09-01T08:39:30;28.20;39.90
24730;DHT22;12832;52.392;13.066;2022-09-01T08:42:09;28.20;40.00
24730;DHT22;12832;52.392;13.066;2022-09-01T08:45:04;28.20;40.00
24730;DHT22;12832;52.392;13.066;2022-09-01T08:47:34;28.20;39.90
24730;DHT22;12832;52.392;13.066;2022-09-01T08:50:21;28.20;39.90
24730;DHT22;12832;52.392;13.066;2022-09-01T08:55:46;28.20;39.70
24730;DHT22;12832;52.392;13.066;2022-09-01T08:58:16;28.20;39.70
24730;DHT22;12832;52.392;13.066;2022-09-01T09:00:45;28.20;39.70
24730;DHT22;12832;52.392;13.066;2022-09-01T09:03:30;28.20;39.60
24730;DHT22;12832;52.392;13.066;2022-09-01T09:06:14;28.20;39.10
24730;DHT22;12832;52.392;13.066;2022-09-01T09:14:27;28.20;39.30
24730;DHT22;12832;52.392;13.066;2022-09-01T09:16:56;28.20;39.30
24730;DHT22;12832;52.392;13.066;2022-09-01T09:19:28;28.20;39.40
24730;DHT22;12832;52.392;13.066;2022-09-01T09:21:57;28.20;39.30
24730;DHT22;12832;52.392;13.066;2022-09-01T09:24:27;28.20;39.10
24730;DHT22;12832;52.392;13.066;2022-09-01T09:32:51;28.20;39.30
24730;DHT22;12832;52.392;13.066;2022-09-01T09:35:43;28.20;39.40
24730;DHT22;12832;52.392;13.066;2022-09-01T09:41:04;28.20;39.20
24730;DHT22;12832;52.392;13.066;2022-09-01T09:49:13;28.20;36.80
24730;DHT22;12832;52.392;13.066;2022-09-01T09:51:43;28.20;38.10
24730;DHT22;12832;52.392;13.066;2022-09-01T09:54:21;28.20;38.40
24730;DHT22;12832;52.392;13.066;2022-09-01T09:57:03;28.20;38.60
24730;DHT22;12832;52.392;13.066;2022-09-01T10:02:39;28.20;38.60
24730;DHT22;12832;52.392;13.066;2022-09-01T10:05:45;28.20;38.60
24730;DHT22;12832;52.392;13.066;2022-09-01T10:10:56;28.20;38.60
24730;DHT22;12832;52.392;13.066;2022-09-01T10:13:26;28.20;38.50
24730;DHT22;12832;52.392;13.066;2022-09-01T10:15:57;28.20;38.40
24730;DHT22;12832;52.392;13.066;2022-09-01T10:18:29;28.20;38.40
24730;DHT22;12832;52.392;13.066;2022-09-01T10:21:07;28.20;38.40
24730;DHT22;12832;52.392;13.066;2022-09-01T10:23:35;28.20;38.30
24730;DHT22;12832;52.392;13.066;2022-09-01T10:26:18;28.20;38.30
24730;DHT22;12832;52.392;13.066;2022-09-01T10:28:57;28.20;38.30
24730;DHT22;12832;52.392;13.066;2022-09-01T10:31:28;28.10;38.10
24730;DHT22;12832;52.392;13.066;2022-09-01T10:34:01;28.20;38.20
24730;DHT22;12832;52.392;13.066;2022-09-01T10:36:28;28.10;38.20
24730;DHT22;12832;52.392;13.066;2022-09-01T10:38:55;28.10;38.10
24730;DHT22;12832;52.392;13.066;2022-09-01T10:41:51;28.20;36.20
24730;DHT22;12832;52.392;13.066;2022-09-01T10:44:30;28.20;35.40
24730;DHT22;12832;52.392;13.066;2022-09-01T10:47:10;28.20;35.10
24730;DHT22;12832;52.392;13.066;2022-09-01T10:55:21;28.20;36.90
24730;DHT22;12832;52.392;13.066;2022-09-01T11:01:05;28.20;37.50
24730;DHT22;12832;52.392;13.066;2022-09-01T11:03:53;28.20;37.80
24730;DHT22;12832;52.392;13.066;2022-09-01T11:12:37;28.10;36.30
24730;DHT22;12832;52.392;13.066;2022-09-01T11:20:33;28.20;35.70
24730;DHT22;12832;52.392;13.066;2022-09-01T11:28:42;28.20;37.80
24730;DHT22;12832;52.392;13.066;2022-09-01T11:34:00;28.10;37.50
24730;DHT22;12832;52.392;13.066;2022-09-01T11:37:00;28.10;36.10
24730;DHT22;12832;52.392;13.066;2022-09-01T11:39:35;28.10;35.70
24730;DHT22;12832;52.392;13.066;2022-09-01T11:42:11;28.20;37.00
24730;DHT22;12832;52.392;13.066;2022-09-01T11:45:04;28.10;37.60
24730;DHT22;12832;52.392;13.066;2022-09-01T11:47:36;28.10;37.40
24730;DHT22;12832;52.392;13.066;2022-09-01T11:50:29;28.10;36.50
24730;DHT22;12832;52.392;13.066;2022-09-01T11:53:05;28.10;36.20
24730;DHT22;12832;52.392;13.066;2022-09-01T11:55:34;28.20;35.20
24730;DHT22;12832;52.392;13.066;2022-09-01T11:58:01;28.20;35.20
24730;DHT22;12832;52.392;13.066;2022-09-01T12:00:33;28.20;37.00
24730;DHT22;12832;52.392;13.066;2022-09-01T12:03:18;28.20;37.30
24730;DHT22;12832;52.392;13.066;2022-09-01T12:05:48;28.10;37.30
24730;DHT22;12832;52.392;13.066;2022-09-01T12:08:18;28.20;37.50
24730;DHT22;12832;52.392;13.066;2022-09-01T12:10:49;28.10;37.40
24730;DHT22;12832;52.392;13.066;2022-09-01T12:13:19;28.10;37.50
24730;DHT22;12832;52.392;13.066;2022-09-01T12:16:02;28.10;37.50
24730;DHT22;12832;52.392;13.066;2022-09-01T12:18:47;28.10;36.80
24730;DHT22;12832;52.392;13.066;2022-09-01T12:21:28;28.10;34.90
24730;DHT22;12832;52.392;13.066;2022-09-01T12:24:16;28.10;36.30
24730;DHT22;12832;52.392;13.066;2022-09-01T12:26:47;28.10;36.80
24730;DHT22;12832;52.392;13.066;2022-09-01T12:29:15;28.10;36.50
24730;DHT22;12832;52.392;13.066;2022-09-01T12:31:43;28.20;36.50
24730;DHT22;12832;52.392;13.066;2022-09-01T12:37:11;28.10;37.00
24730;DHT22;12832;52.392;13.066;2022-09-01T12:39:49;28.10;37.10
24730;DHT22;12832;52.392;13.066;2022-09-01T12:44:53;28.10;37.20
24730;DHT22;12832;52.392;13.066;2022-09-01T12:52:59;28.10;37.20
24730;DHT22;12832;52.392;13.066;2022-09-01T12:55:32;28.10;37.20
24730;DHT22;12832;52.392;13.066;2022-09-01T12:58:20;28.10;37.20
24730;DHT22;12832;52.392;13.066;2022-09-01T13:01:05;28.10;37.10
24730;DHT22;12832;52.392;13.066;2022-09-01T13:06:41;28.10;37.20
24730;DHT22;12832;52.392;13.066;2022-09-01T13:09:07;28.10;37.20
24730;DHT22;12832;52.392;13.066;2022-09-01T13:11:33;28.10;37.20
24730;DHT22;12832;52.392;13.066;2022-09-01T13:14:19;28.10;37.20
24730;DHT22;12832;52.392;13.066;2022-09-01T13:16:46;28.00;37.30
24730;DHT22;12832;52.392;13.066;2022-09-01T13:19:13;28.10;37.10
24730;DHT22;12832;52.392;13.066;2022-09-01T13:21:51;28.00;37.30
24730;DHT22;12832;52.392;13.066;2022-09-01T13:24:17;28.00;37.40
24730;DHT22;12832;52.392;13.066;2022-09-01T13:26:44;28.00;37.40
24730;DHT22;12832;52.392;13.066;2022-09-01T13:29:34;28.10;36.80
24730;DHT22;12832;52.392;13.066;2022-09-01T13:32:00;28.10;35.80
24730;DHT22;12832;52.392;13.066;2022-09-01T13:34:47;28.10;36.80
24730;DHT22;12832;52.392;13.066;2022-09-01T13:37:15;28.10;36.90
24730;DHT22;12832;52.392;13.066;2022-09-01T13:39:41;28.10;37.00
24730;DHT22;12832;52.392;13.066;2022-09-01T13:42:08;28.10;37.00
24730;DHT22;12832;52.392;13.066;2022-09-01T13:44:35;28.10;37.00
24730;DHT22;12832;52.392;13.066;2022-09-01T13:47:01;28.00;37.00
24730;DHT22;12832;52.392;13.066;2022-09-01T13:49:48;28.00;37.00
24730;DHT22;12832;52.392;13.066;2022-09-01T13:52:34;28.00;36.90
24730;DHT22;12832;52.392;13.066;2022-09-01T13:55:00;28.00;37.00
24730;DHT22;12832;52.392;13.066;2022-09-01T13:57:26;28.00;37.60
24730;DHT22;12832;52.392;13.066;2022-09-01T14:00:02;28.00;36.90
24730;DHT22;12832;52.392;13.066;2022-09-01T14:02:28;28.00;36.90
24730;DHT22;12832;52.392;13.066;2022-09-01T14:04:54;28.00;36.90
24730;DHT22;12832;52.392;13.066;2022-09-01T14:07:20;28.00;36.90
24730;DHT22;12832;52.392;13.066;2022-09-01T14:09:47;28.00;36.80
24730;DHT22;12832;52.392;13.066;2022-09-01T14:12:13;28.00;36.90
24730;DHT22;12832;52.392;13.066;2022-09-01T14:14:39;28.00;36.80
24730;DHT22;12832;52.392;13.066;2022-09-01T14:17:25;28.00;36.80
24730;DHT22;12832;52.392;13.066;2022-09-01T14:19:51;28.00;36.80
24730;DHT22;12832;52.392;13.066;2022-09-01T14:22:17;28.00;36.90
24730;DHT22;12832;52.392;13.066;2022-09-01T14:24:44;28.00;36.80
24730;DHT22;12832;52.392;13.066;2022-09-01T14:27:10;28.10;36.90
24730;DHT22;12832;52.392;13.066;2022-09-01T14:29:36;28.00;36.80
24730;DHT22;12832;52.392;13.066;2022-09-01T14:32:02;28.00;36.80
24730;DHT22;12832;52.392;13.066;2022-09-01T14:34:28;28.00;36.80
24730;DHT22;12832;52.392;13.066;2022-09-01T14:36:55;28.00;36.80
24730;DHT22;12832;52.392;13.066;2022-09-01T14:39:25;28.00;36.70
24730;DHT22;12832;52.392;13.066;2022-09-01T14:41:51;28.00;36.70
24730;DHT22;12832;52.392;13.066;2022-09-01T14:44:18;28.00;36.80
24730;DHT22;12832;52.392;13.066;2022-09-01T14:46:44;28.00;36.80
24730;DHT22;12832;52.392;13.066;2022-09-01T14:49:13;28.00;36.80
24730;DHT22;12832;52.392;13.066;2022-09-01T14:51:47;28.00;36.80
24730;DHT22;12832;52.392;13.066;2022-09-01T14:54:34;28.00;36.80
24730;DHT22;12832;52.392;13.066;2022-09-01T14:57:01;28.00;36.80
24730;DHT22;12832;52.392;13.066;2022-09-01T14:59:47;28.00;36.80
24730;DHT22;12832;52.392;13.066;2022-09-01T15:02:13;28.00;36.80
24730;DHT22;12832;52.392;13.066;2022-09-01T15:04:39;28.00;36.80
24730;DHT22;12832;52.392;13.066;2022-09-01T15:07:07;28.00;36.80
24730;DHT22;12832;52.392;13.066;2022-09-01T15:09:34;28.00;36.80
24730;DHT22;12832;52.392;13.066;2022-09-01T15:12:00;27.90;36.80
24730;DHT22;12832;52.392;13.066;2022-09-01T15:14:27;28.00;36.80
24730;DHT22;12832;52.392;13.066;2022-09-01T15:16:53;27.90;36.80
24730;DHT22;12832;52.392;13.066;2022-09-01T15:19:19;28.00;36.80
24730;DHT22;12832;52.392;13.066;2022-09-01T15:21:46;28.00;36.70
24730;DHT22;12832;52.392;13.066;2022-09-01T15:24:12;28.00;36.80
24730;DHT22;12832;52.392;13.066;2022-09-01T15:26:39;28.00;36.80
24730;DHT22;12832;52.392;13.066;2022-09-01T15:29:10;28.00;36.80
24730;DHT22;12832;52.392;13.066;2022-09-01T15:31:38;28.00;36.80
24730;DHT22;12832;52.392;13.066;2022-09-01T15:34:05;28.00;36.80
24730;DHT22;12832;52.392;13.066;2022-09-01T15:36:34;28.00;36.80
24730;DHT22;12832;52.392;13.066;2022-09-01T15:39:02;28.00;36.80
24730;DHT22;12832;52.392;13.066;2022-09-01T15:41:30;28.00;36.80
24730;DHT22;12832;52.392;13.066;2022-09-01T15:43:58;28.00;36.80
24730;DHT22;12832;52.392;13.066;2022-09-01T15:46:26;28.00;36.80
24730;DHT22;12832;52.392;13.066;2022-09-01T15:48:58;28.00;36.80
24730;DHT22;12832;52.392;13.066;2022-09-01T15:51:41;27.90;36.80
24730;DHT22;12832;52.392;13.066;2022-09-01T15:54:18;28.00;36.90
24730;DHT22;12832;52.392;13.066;2022-09-01T15:56:45;27.90;36.80
24730;DHT22;12832;52.392;13.066;2022-09-01T15:59:12;27.90;36.80
24730;DHT22;12832;52.392;13.066;2022-09-01T16:01:42;27.90;36.80
24730;DHT22;12832;52.392;13.066;2022-09-01T16:04:10;27.90;36.80
24730;DHT22;12832;52.392;13.066;2022-09-01T16:06:43;27.90;36.70
24730;DHT22;12832;52.392;13.066;2022-09-01T16:09:10;28.00;36.70
24730;DHT22;12832;52.392;13.066;2022-09-01T16:11:36;27.90;36.60
24730;DHT22;12832;52.392;13.066;2022-09-01T16:14:04;27.90;36.70
24730;DHT22;12832;52.392;13.066;2022-09-01T16:19:20;27.90;36.50
24730;DHT22;12832;52.392;13.066;2022-09-01T16:22:30;27.90;37.30
24730;DHT22;12832;52.392;13.066;2022-09-01T16:25:12;27.90;36.60
24730;DHT22;12832;52.392;13.066;2022-09-01T16:27:43;27.90;36.50
24730;DHT22;12832;52.392;13.066;2022-09-01T16:30:13;27.90;36.50
24730;DHT22;12832;52.392;13.066;2022-09-01T16:32:46;27.90;36.50
24730;DHT22;12832;52.392;13.066;2022-09-01T16:35:13;27.90;36.50
24730;DHT22;12832;52.392;13.066;2022-09-01T16:41:21;27.90;36.50
24730;DHT22;12832;52.392;13.066;2022-09-01T16:51:51;27.90;36.50
24730;DHT22;12832;52.392;13.066;2022-09-01T16:54:23;27.90;36.50
24730;DHT22;12832;52.392;13.066;2022-09-01T16:59:59;27.90;36.60
24730;DHT22;12832;52.392;13.066;2022-09-01T17:05:24;27.90;36.20
24730;DHT22;12832;52.392;13.066;2022-09-01T17:10:41;28.00;36.30
24730;DHT22;12832;52.392;13.066;2022-09-01T17:13:37;28.00;36.30
24730;DHT22;12832;52.392;13.066;2022-09-01T17:16:14;28.00;36.30
24730;DHT22;12832;52.392;13.066;2022-09-01T17:18:49;28.10;36.40
24730;DHT22;12832;52.392;13.066;2022-09-01T17:23:58;28.20;36.40